sensor_id;sensor_type;location;lat;lon;timestamp;temperature;humidity
35127;DHT22;21300;52.006;5.798;2022-12-05T00:00:29;2.50;96.70
35127;DHT22;21300;52.006;5.798;2022-12-05T00:02:55;2.50;96.70
35127;DHT22;21300;52.006;5.798;2022-12-05T00:05:20;2.50;96.70
35127;DHT22;21300;52.006;5.798;2022-12-05T00:07:46;2.50;96.70
35127;DHT22;21300;52.006;5.798;2022-12-05T00:10:12;2.50;96.70
35127;DHT22;21300;52.006;5.798;2022-12-05T00:12:38;2.50;96.70
35127;DHT22;21300;52.006;5.798;2022-12-05T00:15:04;2.50;96.70
35127;DHT22;21300;52.006;5.798;2022-12-05T00:17:31;2.50;96.70
35127;DHT22;21300;52.006;5.798;2022-12-05T00:19:57;2.50;96.70
35127;DHT22;21300;52.006;5.798;2022-12-05T00:22:23;2.50;96.70
35127;DHT22;21300;52.006;5.798;2022-12-05T00:24:48;2.50;96.70
35127;DHT22;21300;52.006;5.798;2022-12-05T00:27:14;2.60;96.70
35127;DHT22;21300;52.006;5.798;2022-12-05T00:29:39;2.50;96.70
35127;DHT22;21300;52.006;5.798;2022-12-05T00:32:05;2.60;96.80
35127;DHT22;21300;52.006;5.798;2022-12-05T00:34:30;2.60;96.80
35127;DHT22;21300;52.006;5.798;2022-12-05T00:36:56;2.50;96.80
35127;DHT22;21300;52.006;5.798;2022-12-05T00:39:22;2.60;96.80
35127;DHT22;21300;52.006;5.798;2022-12-05T00:41:47;2.50;96.80
35127;DHT22;21300;52.006;5.798;2022-12-05T00:44:13;2.60;96.80
35127;DHT22;21300;52.006;5.798;2022-12-05T00:46:39;2.60;96.80
35127;DHT22;21300;52.006;5.798;2022-12-05T00:49:06;2.60;96.80
35127;DHT22;21300;52.006;5.798;2022-12-05T00:51:37;2.60;96.80
35127;DHT22;21300;52.006;5.798;2022-12-05T00:54:07;2.60;96.80
35127;DHT22;21300;52.006;5.798;2022-12-05T00:56:33;2.60;96.80
35127;DHT22;21300;52.006;5.798;2022-12-05T00:59:00;2.60;96.80
35127;DHT22;21300;52.006;5.798;2022-12-05T01:03:55;2.60;96.80
35127;DHT22;21300;52.006;5.798;2022-12-05T01:06:22;2.60;96.80
35127;DHT22;21300;52.006;5.798;2022-12-05T01:08:48;2.60;96.80
35127;DHT22;21300;52.006;5.798;2022-12-05T01:11:15;2.60;96.90
35127;DHT22;21300;52.006;5.798;2022-12-05T01:13:42;2.60;96.90
35127;DHT22;21300;52.006;5.798;2022-12-05T01:16:23;2.60;96.90
35127;DHT22;21300;52.006;5.798;2022-12-05T01:18:49;2.60;96.90
35127;DHT22;21300;52.006;5.798;2022-12-05T01:21:15;2.60;96.90
35127;DHT22;21300;52.006;5.798;2022-12-05T01:23:41;2.60;97.20
35127;DHT22;21300;52.006;5.798;2022-12-05T01:26:09;2.60;96.90
35127;DHT22;21300;52.006;5.798;2022-12-05T01:28:35;2.60;96.90
35127;DHT22;21300;52.006;5.798;2022-12-05T01:31:14;2.60;96.90
35127;DHT22;21300;52.006;5.798;2022-12-05T01:33:41;2.60;96.90
35127;DHT22;21300;52.006;5.798;2022-12-05T01:36:09;2.60;96.90
35127;DHT22;21300;52.006;5.798;2022-12-05T01:38:37;2.60;96.90
35127;DHT22;21300;52.006;5.798;2022-12-05T01:41:04;2.60;96.90
35127;DHT22;21300;52.006;5.798;2022-12-05T01:43:30;2.60;96.90
35127;DHT22;21300;52.006;5.798;2022-12-05T01:45:56;2.60;96.90
35127;DHT22;21300;52.006;5.798;2022-12-05T01:48:26;2.60;96.90
35127;DHT22;21300;52.006;5.798;2022-12-05T01:50:53;2.60;96.90
35127;DHT22;21300;52.006;5.798;2022-12-05T01:53:19;2.60;96.90
35127;DHT22;21300;52.006;5.798;2022-12-05T01:55:46;2.60;96.90
35127;DHT22;21300;52.006;5.798;2022-12-05T01:58:13;2.60;96.90
35127;DHT22;21300;52.006;5.798;2022-12-05T02:00:39;2.60;96.90
35127;DHT22;21300;52.006;5.798;2022-12-05T02:03:12;2.70;96.90
35127;DHT22;21300;52.006;5.798;2022-12-05T02:05:39;2.70;96.90
35127;DHT22;21300;52.006;5.798;2022-12-05T02:08:07;2.70;96.90
35127;DHT22;21300;52.006;5.798;2022-12-05T02:10:41;2.70;96.90
35127;DHT22;21300;52.006;5.798;2022-12-05T02:13:43;2.70;96.90
35127;DHT22;21300;52.006;5.798;2022-12-05T02:16:34;2.70;96.90
35127;DHT22;21300;52.006;5.798;2022-12-05T02:19:12;2.70;96.90
35127;DHT22;21300;52.006;5.798;2022-12-05T02:21:47;2.70;96.90
35127;DHT22;21300;52.006;5.798;2022-12-05T02:35:50;2.70;97.00
35127;DHT22;21300;52.006;5.798;2022-12-05T02:37:56;2.70;97.00
35127;DHT22;21300;52.006;5.798;2022-12-05T02:40:35;2.70;97.00
35127;DHT22;21300;52.006;5.798;2022-12-05T02:43:09;2.70;97.00
35127;DHT22;21300;52.006;5.798;2022-12-05T02:45:37;2.70;97.00
35127;DHT22;21300;52.006;5.798;2022-12-05T02:48:03;2.70;97.00
35127;DHT22;21300;52.006;5.798;2022-12-05T02:50:34;2.70;97.00
35127;DHT22;21300;52.006;5.798;2022-12-05T02:53:05;2.70;97.00
35127;DHT22;21300;52.006;5.798;2022-12-05T02:55:33;2.70;97.00
35127;DHT22;21300;52.006;5.798;2022-12-05T02:58:04;2.70;97.00
35127;DHT22;21300;52.006;5.798;2022-12-05T03:00:29;2.70;97.00
35127;DHT22;21300;52.006;5.798;2022-12-05T03:02:57;2.70;97.00
35127;DHT22;21300;52.006;5.798;2022-12-05T03:05:43;2.70;97.00
35127;DHT22;21300;52.006;5.798;2022-12-05T03:08:15;2.70;97.00
35127;DHT22;21300;52.006;5.798;2022-12-05T03:10:44;2.70;97.00
35127;DHT22;21300;52.006;5.798;2022-12-05T03:13:16;2.70;97.00
35127;DHT22;21300;52.006;5.798;2022-12-05T03:15:47;2.70;97.00
35127;DHT22;21300;52.006;5.798;2022-12-05T03:18:24;2.70;97.00
35127;DHT22;21300;52.006;5.798;2022-12-05T03:21:16;2.70;97.00
35127;DHT22;21300;52.006;5.798;2022-12-05T03:23:50;2.70;97.00
35127;DHT22;21300;52.006;5.798;2022-12-05T03:31:53;2.80;97.00
35127;DHT22;21300;52.006;5.798;2022-12-05T03:34:48;2.80;97.00
35127;DHT22;21300;52.006;5.798;2022-12-05T03:37:41;2.80;97.00
35127;DHT22;21300;52.006;5.798;2022-12-05T03:42:42;2.80;97.00
35127;DHT22;21300;52.006;5.798;2022-12-05T03:45:15;2.80;97.00
35127;DHT22;21300;52.006;5.798;2022-12-05T03:48:08;2.80;97.00
35127;DHT22;21300;52.006;5.798;2022-12-05T03:50:37;2.80;97.00
35127;DHT22;21300;52.006;5.798;2022-12-05T03:53:06;2.80;97.00
35127;DHT22;21300;52.006;5.798;2022-12-05T03:55:37;2.80;97.00
35127;DHT22;21300;52.006;5.798;2022-12-05T03:58:21;2.80;97.00
35127;DHT22;21300;52.006;5.798;2022-12-05T04:00:51;2.80;97.00
35127;DHT22;21300;52.006;5.798;2022-12-05T04:03:42;2.80;97.00
35127;DHT22;21300;52.006;5.798;2022-12-05T04:06:22;2.80;97.00
35127;DHT22;21300;52.006;5.798;2022-12-05T04:09:05;2.80;97.00
35127;DHT22;21300;52.006;5.798;2022-12-05T04:11:34;2.80;97.00
35127;DHT22;21300;52.006;5.798;2022-12-05T04:14:10;2.80;97.00
35127;DHT22;21300;52.006;5.798;2022-12-05T04:16:42;2.80;97.00
35127;DHT22;21300;52.006;5.798;2022-12-05T04:22:29;2.80;97.00
35127;DHT22;21300;52.006;5.798;2022-12-05T04:24:57;2.80;97.00
35127;DHT22;21300;52.006;5.798;2022-12-05T04:28:09;2.80;97.00
35127;DHT22;21300;52.006;5.798;2022-12-05T04:30:43;2.80;97.00
35127;DHT22;21300;52.006;5.798;2022-12-05T04:33:13;2.90;97.00
35127;DHT22;21300;52.006;5.798;2022-12-05T04:35:52;2.90;97.10
35127;DHT22;21300;52.006;5.798;2022-12-05T04:38:41;2.90;97.10
35127;DHT22;21300;52.006;5.798;2022-12-05T04:41:14;2.80;97.00
35127;DHT22;21300;52.006;5.798;2022-12-05T04:43:42;2.90;97.00
35127;DHT22;21300;52.006;5.798;2022-12-05T04:46:11;2.80;97.00
35127;DHT22;21300;52.006;5.798;2022-12-05T04:48:38;2.90;97.00
35127;DHT22;21300;52.006;5.798;2022-12-05T04:51:06;2.90;97.00
35127;DHT22;21300;52.006;5.798;2022-12-05T04:53:34;2.90;97.00
35127;DHT22;21300;52.006;5.798;2022-12-05T04:56:01;2.90;97.00
35127;DHT22;21300;52.006;5.798;2022-12-05T04:58:28;2.90;97.00
35127;DHT22;21300;52.006;5.798;2022-12-05T05:03:53;2.90;97.00
35127;DHT22;21300;52.006;5.798;2022-12-05T05:06:19;2.90;97.00
35127;DHT22;21300;52.006;5.798;2022-12-05T05:08:55;2.90;97.00
35127;DHT22;21300;52.006;5.798;2022-12-05T05:11:29;2.90;97.00
35127;DHT22;21300;52.006;5.798;2022-12-05T05:13:56;2.90;97.00
35127;DHT22;21300;52.006;5.798;2022-12-05T05:16:24;2.90;97.00
35127;DHT22;21300;52.006;5.798;2022-12-05T05:18:50;2.90;97.00
35127;DHT22;21300;52.006;5.798;2022-12-05T05:21:34;2.90;97.30
35127;DHT22;21300;52.006;5.798;2022-12-05T05:24:00;2.90;97.00
35127;DHT22;21300;52.006;5.798;2022-12-05T05:26:27;2.90;97.00
35127;DHT22;21300;52.006;5.798;2022-12-05T05:28:54;2.90;97.00
35127;DHT22;21300;52.006;5.798;2022-12-05T05:31:20;2.90;97.00
35127;DHT22;21300;52.006;5.798;2022-12-05T05:33:53;2.90;97.00
35127;DHT22;21300;52.006;5.798;2022-12-05T05:36:21;2.90;97.00
35127;DHT22;21300;52.006;5.798;2022-12-05T05:38:50;2.90;97.00
35127;DHT22;21300;52.006;5.798;2022-12-05T05:41:21;2.90;97.10
35127;DHT22;21300;52.006;5.798;2022-12-05T05:43:47;3.00;97.20
35127;DHT22;21300;52.006;5.798;2022-12-05T05:46:15;3.00;97.20
35127;DHT22;21300;52.006;5.798;2022-12-05T05:48:41;3.00;97.20
35127;DHT22;21300;52.006;5.798;2022-12-05T05:51:08;3.00;97.20
35127;DHT22;21300;52.006;5.798;2022-12-05T05:53:34;3.00;97.20
35127;DHT22;21300;52.006;5.798;2022-12-05T05:56:05;3.00;97.20
35127;DHT22;21300;52.006;5.798;2022-12-05T05:58:31;3.00;97.20
35127;DHT22;21300;52.006;5.798;2022-12-05T06:03:29;3.00;97.20
35127;DHT22;21300;52.006;5.798;2022-12-05T06:05:59;3.00;97.20
35127;DHT22;21300;52.006;5.798;2022-12-05T06:08:29;3.00;97.20
35127;DHT22;21300;52.006;5.798;2022-12-05T06:10:54;3.00;97.20
35127;DHT22;21300;52.006;5.798;2022-12-05T06:13:20;3.00;97.20
35127;DHT22;21300;52.006;5.798;2022-12-05T06:15:46;3.00;97.20
35127;DHT22;21300;52.006;5.798;2022-12-05T06:18:11;3.00;97.20
35127;DHT22;21300;52.006;5.798;2022-12-05T06:20:37;3.10;97.20
35127;DHT22;21300;52.006;5.798;2022-12-05T06:23:02;3.00;97.20
35127;DHT22;21300;52.006;5.798;2022-12-05T06:25:28;3.00;97.20
35127;DHT22;21300;52.006;5.798;2022-12-05T06:27:53;3.10;97.20
35127;DHT22;21300;52.006;5.798;2022-12-05T06:30:19;3.10;97.20
35127;DHT22;21300;52.006;5.798;2022-12-05T06:32:44;3.10;97.20
35127;DHT22;21300;52.006;5.798;2022-12-05T06:35:10;3.10;97.20
35127;DHT22;21300;52.006;5.798;2022-12-05T06:37:44;3.10;97.20
35127;DHT22;21300;52.006;5.798;2022-12-05T06:40:11;3.10;97.20
35127;DHT22;21300;52.006;5.798;2022-12-05T06:42:37;3.00;97.20
35127;DHT22;21300;52.006;5.798;2022-12-05T06:45:04;3.00;97.50
35127;DHT22;21300;52.006;5.798;2022-12-05T06:47:30;3.00;97.20
35127;DHT22;21300;52.006;5.798;2022-12-05T06:49:56;3.10;97.20
35127;DHT22;21300;52.006;5.798;2022-12-05T06:52:21;3.10;97.20
35127;DHT22;21300;52.006;5.798;2022-12-05T06:54:47;3.10;97.10
35127;DHT22;21300;52.006;5.798;2022-12-05T06:57:13;3.10;97.20
35127;DHT22;21300;52.006;5.798;2022-12-05T06:59:39;3.10;97.20
35127;DHT22;21300;52.006;5.798;2022-12-05T07:02:05;3.10;97.20
35127;DHT22;21300;52.006;5.798;2022-12-05T07:04:34;3.10;97.20
35127;DHT22;21300;52.006;5.798;2022-12-05T07:06:59;3.10;97.20
35127;DHT22;21300;52.006;5.798;2022-12-05T07:09:28;3.10;97.20
35127;DHT22;21300;52.006;5.798;2022-12-05T07:12:17;3.10;97.20
35127;DHT22;21300;52.006;5.798;2022-12-05T07:14:43;3.10;97.20
35127;DHT22;21300;52.006;5.798;2022-12-05T07:17:09;3.10;97.20
35127;DHT22;21300;52.006;5.798;2022-12-05T07:19:35;3.10;97.30
35127;DHT22;21300;52.006;5.798;2022-12-05T07:22:01;3.10;97.50
35127;DHT22;21300;52.006;5.798;2022-12-05T07:24:27;3.20;97.60
35127;DHT22;21300;52.006;5.798;2022-12-05T07:26:52;3.20;97.60
35127;DHT22;21300;52.006;5.798;2022-12-05T07:29:18;3.20;97.50
35127;DHT22;21300;52.006;5.798;2022-12-05T07:31:44;3.10;97.50
35127;DHT22;21300;52.006;5.798;2022-12-05T07:34:09;3.10;97.50
35127;DHT22;21300;52.006;5.798;2022-12-05T07:36:35;3.20;97.50
35127;DHT22;21300;52.006;5.798;2022-12-05T07:39:00;3.20;97.50
35127;DHT22;21300;52.006;5.798;2022-12-05T07:41:31;3.20;97.40
35127;DHT22;21300;52.006;5.798;2022-12-05T07:43:58;3.20;97.40
35127;DHT22;21300;52.006;5.798;2022-12-05T07:46:25;3.20;97.40
35127;DHT22;21300;52.006;5.798;2022-12-05T07:48:51;3.20;97.40
35127;DHT22;21300;52.006;5.798;2022-12-05T07:51:17;3.20;97.40
35127;DHT22;21300;52.006;5.798;2022-12-05T07:53:43;3.20;97.40
35127;DHT22;21300;52.006;5.798;2022-12-05T07:56:11;3.20;97.40
35127;DHT22;21300;52.006;5.798;2022-12-05T07:58:39;3.20;97.40
35127;DHT22;21300;52.006;5.798;2022-12-05T08:01:12;3.20;97.40
35127;DHT22;21300;52.006;5.798;2022-12-05T08:03:38;3.20;97.40
35127;DHT22;21300;52.006;5.798;2022-12-05T08:06:06;3.20;97.30
35127;DHT22;21300;52.006;5.798;2022-12-05T08:08:31;3.20;97.30
35127;DHT22;21300;52.006;5.798;2022-12-05T08:11:06;3.20;97.50
35127;DHT22;21300;52.006;5.798;2022-12-05T08:13:32;3.20;97.60
35127;DHT22;21300;52.006;5.798;2022-12-05T08:16:03;3.30;97.60
35127;DHT22;21300;52.006;5.798;2022-12-05T08:18:29;3.20;97.50
35127;DHT22;21300;52.006;5.798;2022-12-05T08:20:59;3.30;97.60
35127;DHT22;21300;52.006;5.798;2022-12-05T08:23:27;3.30;97.60
35127;DHT22;21300;52.006;5.798;2022-12-05T08:25:53;3.30;97.60
35127;DHT22;21300;52.006;5.798;2022-12-05T08:28:18;3.30;97.60
35127;DHT22;21300;52.006;5.798;2022-12-05T08:30:44;3.30;97.60
35127;DHT22;21300;52.006;5.798;2022-12-05T08:33:10;3.20;97.60
35127;DHT22;21300;52.006;5.798;2022-12-05T08:35:38;3.30;97.60
35127;DHT22;21300;52.006;5.798;2022-12-05T08:38:04;3.30;97.60
35127;DHT22;21300;52.006;5.798;2022-12-05T08:40:29;3.30;97.60
35127;DHT22;21300;52.006;5.798;2022-12-05T08:42:56;3.30;97.60
35127;DHT22;21300;52.006;5.798;2022-12-05T08:45:22;3.30;97.60
35127;DHT22;21300;52.006;5.798;2022-12-05T08:47:47;3.30;97.90
35127;DHT22;21300;52.006;5.798;2022-12-05T08:50:13;3.30;97.60
35127;DHT22;21300;52.006;5.798;2022-12-05T08:52:38;3.30;98.00
35127;DHT22;21300;52.006;5.798;2022-12-05T08:55:04;3.30;98.20
35127;DHT22;21300;52.006;5.798;2022-12-05T08:57:30;3.40;98.30
35127;DHT22;21300;52.006;5.798;2022-12-05T08:59:55;3.40;98.70
35127;DHT22;21300;52.006;5.798;2022-12-05T09:02:21;3.40;98.60
35127;DHT22;21300;52.006;5.798;2022-12-05T09:04:49;3.40;98.70
35127;DHT22;21300;52.006;5.798;2022-12-05T09:07:16;3.50;98.80
35127;DHT22;21300;52.006;5.798;2022-12-05T09:09:41;3.50;98.90
35127;DHT22;21300;52.006;5.798;2022-12-05T09:12:07;3.50;99.00
35127;DHT22;21300;52.006;5.798;2022-12-05T09:14:33;3.50;98.90
35127;DHT22;21300;52.006;5.798;2022-12-05T09:16:58;3.50;98.80
35127;DHT22;21300;52.006;5.798;2022-12-05T09:19:25;3.50;98.80
35127;DHT22;21300;52.006;5.798;2022-12-05T09:21:52;3.40;98.80
35127;DHT22;21300;52.006;5.798;2022-12-05T09:24:18;3.50;98.80
35127;DHT22;21300;52.006;5.798;2022-12-05T09:26:44;3.40;98.70
35127;DHT22;21300;52.006;5.798;2022-12-05T09:29:11;3.40;98.70
35127;DHT22;21300;52.006;5.798;2022-12-05T09:31:37;3.40;98.70
35127;DHT22;21300;52.006;5.798;2022-12-05T09:34:03;3.40;98.70
35127;DHT22;21300;52.006;5.798;2022-12-05T09:36:30;3.40;98.60
35127;DHT22;21300;52.006;5.798;2022-12-05T09:39:00;3.40;98.60
35127;DHT22;21300;52.006;5.798;2022-12-05T09:44:43;3.40;98.60
35127;DHT22;21300;52.006;5.798;2022-12-05T09:47:40;3.40;98.60
35127;DHT22;21300;52.006;5.798;2022-12-05T09:50:37;3.40;98.60
35127;DHT22;21300;52.006;5.798;2022-12-05T09:53:32;3.50;98.60
35127;DHT22;21300;52.006;5.798;2022-12-05T10:01:26;3.40;98.50
35127;DHT22;21300;52.006;5.798;2022-12-05T10:10:33;3.40;98.50
35127;DHT22;21300;52.006;5.798;2022-12-05T10:13:15;3.40;98.40
35127;DHT22;21300;52.006;5.798;2022-12-05T10:15:51;3.50;98.50
35127;DHT22;21300;52.006;5.798;2022-12-05T10:20:50;3.50;98.40
35127;DHT22;21300;52.006;5.798;2022-12-05T10:23:23;3.50;98.40
35127;DHT22;21300;52.006;5.798;2022-12-05T10:25:56;3.40;98.40
35127;DHT22;21300;52.006;5.798;2022-12-05T10:31:25;3.50;98.40
35127;DHT22;21300;52.006;5.798;2022-12-05T10:34:27;3.50;98.40
35127;DHT22;21300;52.006;5.798;2022-12-05T10:39:35;3.50;98.40
35127;DHT22;21300;52.006;5.798;2022-12-05T10:42:02;3.50;98.30
35127;DHT22;21300;52.006;5.798;2022-12-05T10:44:28;3.50;98.30
35127;DHT22;21300;52.006;5.798;2022-12-05T10:46:53;3.50;98.30
35127;DHT22;21300;52.006;5.798;2022-12-05T10:49:19;3.50;98.30
35127;DHT22;21300;52.006;5.798;2022-12-05T10:51:46;3.50;98.20
35127;DHT22;21300;52.006;5.798;2022-12-05T10:54:35;3.50;98.30
35127;DHT22;21300;52.006;5.798;2022-12-05T10:57:21;3.50;98.30
35127;DHT22;21300;52.006;5.798;2022-12-05T10:59:47;3.50;98.30
35127;DHT22;21300;52.006;5.798;2022-12-05T11:02:28;3.50;98.30
35127;DHT22;21300;52.006;5.798;2022-12-05T11:04:55;3.50;98.20
35127;DHT22;21300;52.006;5.798;2022-12-05T11:09:54;3.50;98.20
35127;DHT22;21300;52.006;5.798;2022-12-05T11:12:45;3.50;98.20
35127;DHT22;21300;52.006;5.798;2022-12-05T11:17:46;3.60;98.20
35127;DHT22;21300;52.006;5.798;2022-12-05T11:22:53;3.60;98.20
35127;DHT22;21300;52.006;5.798;2022-12-05T11:25:35;3.60;98.20
35127;DHT22;21300;52.006;5.798;2022-12-05T11:28:23;3.60;98.20
35127;DHT22;21300;52.006;5.798;2022-12-05T11:30:57;3.60;98.20
35127;DHT22;21300;52.006;5.798;2022-12-05T11:33:24;3.60;98.20
35127;DHT22;21300;52.006;5.798;2022-12-05T11:35:53;3.60;98.20
35127;DHT22;21300;52.006;5.798;2022-12-05T11:38:21;3.60;98.20
35127;DHT22;21300;52.006;5.798;2022-12-05T11:51:44;3.60;98.10
35127;DHT22;21300;52.006;5.798;2022-12-05T11:54:32;3.60;98.10
35127;DHT22;21300;52.006;5.798;2022-12-05T12:02:38;3.60;98.10
35127;DHT22;21300;52.006;5.798;2022-12-05T12:05:26;3.60;98.10
35127;DHT22;21300;52.006;5.798;2022-12-05T12:10:58;3.60;98.10
35127;DHT22;21300;52.006;5.798;2022-12-05T12:13:42;3.60;98.00
35127;DHT22;21300;52.006;5.798;2022-12-05T12:16:16;3.70;98.10
35127;DHT22;21300;52.006;5.798;2022-12-05T12:19:09;3.60;98.00
35127;DHT22;21300;52.006;5.798;2022-12-05T12:27:39;3.70;98.00
35127;DHT22;21300;52.006;5.798;2022-12-05T12:30:26;3.70;98.00
35127;DHT22;21300;52.006;5.798;2022-12-05T12:33:03;3.70;98.00
35127;DHT22;21300;52.006;5.798;2022-12-05T12:35:31;3.70;98.00
35127;DHT22;21300;52.006;5.798;2022-12-05T12:47:00;3.70;98.00
35127;DHT22;21300;52.006;5.798;2022-12-05T12:57:36;3.80;98.10
35127;DHT22;21300;52.006;5.798;2022-12-05T13:00:21;3.80;98.10
35127;DHT22;21300;52.006;5.798;2022-12-05T13:02:55;3.80;98.10
35127;DHT22;21300;52.006;5.798;2022-12-05T13:05:44;3.80;98.10
35127;DHT22;21300;52.006;5.798;2022-12-05T13:08:18;3.80;98.10
35127;DHT22;21300;52.006;5.798;2022-12-05T13:10:47;3.80;98.10
35127;DHT22;21300;52.006;5.798;2022-12-05T13:13:29;3.80;98.00
35127;DHT22;21300;52.006;5.798;2022-12-05T13:16:03;3.80;98.10
35127;DHT22;21300;52.006;5.798;2022-12-05T13:18:32;3.80;98.00
35127;DHT22;21300;52.006;5.798;2022-12-05T13:21:01;3.80;98.10
35127;DHT22;21300;52.006;5.798;2022-12-05T13:23:44;3.80;98.10
35127;DHT22;21300;52.006;5.798;2022-12-05T13:26:11;3.90;98.10
35127;DHT22;21300;52.006;5.798;2022-12-05T13:28:38;3.80;98.00
35127;DHT22;21300;52.006;5.798;2022-12-05T13:31:07;3.80;98.00
35127;DHT22;21300;52.006;5.798;2022-12-05T13:33:41;3.80;98.00
35127;DHT22;21300;52.006;5.798;2022-12-05T13:36:09;3.90;98.10
35127;DHT22;21300;52.006;5.798;2022-12-05T13:39:05;3.90;98.10
35127;DHT22;21300;52.006;5.798;2022-12-05T13:41:55;3.90;98.10
35127;DHT22;21300;52.006;5.798;2022-12-05T13:53:21;4.00;98.30
35127;DHT22;21300;52.006;5.798;2022-12-05T13:56:02;4.00;98.30
35127;DHT22;21300;52.006;5.798;2022-12-05T14:11:34;4.00;98.50
35127;DHT22;21300;52.006;5.798;2022-12-05T14:14:00;4.10;98.60
35127;DHT22;21300;52.006;5.798;2022-12-05T14:19:04;4.10;98.60
35127;DHT22;21300;52.006;5.798;2022-12-05T14:21:59;4.10;98.50
35127;DHT22;21300;52.006;5.798;2022-12-05T14:25:08;4.10;98.50
35127;DHT22;21300;52.006;5.798;2022-12-05T14:27:54;4.10;98.50
35127;DHT22;21300;52.006;5.798;2022-12-05T14:30:28;4.10;98.50
35127;DHT22;21300;52.006;5.798;2022-12-05T14:32:59;4.10;98.50
35127;DHT22;21300;52.006;5.798;2022-12-05T14:35:38;4.10;98.50
35127;DHT22;21300;52.006;5.798;2022-12-05T14:38:05;4.10;98.50
35127;DHT22;21300;52.006;5.798;2022-12-05T14:40:42;4.10;98.50
35127;DHT22;21300;52.006;5.798;2022-12-05T14:43:29;4.10;98.50
35127;DHT22;21300;52.006;5.798;2022-12-05T14:45:59;4.10;98.50
35127;DHT22;21300;52.006;5.798;2022-12-05T14:48:32;4.10;98.50
35127;DHT22;21300;52.006;5.798;2022-12-05T14:50:59;4.10;98.50
35127;DHT22;21300;52.006;5.798;2022-12-05T14:53:36;4.10;98.50
35127;DHT22;21300;52.006;5.798;2022-12-05T14:56:10;4.10;98.50
35127;DHT22;21300;52.006;5.798;2022-12-05T15:01:27;4.10;98.50
35127;DHT22;21300;52.006;5.798;2022-12-05T15:06:34;4.10;98.60
35127;DHT22;21300;52.006;5.798;2022-12-05T15:09:06;4.10;98.40
35127;DHT22;21300;52.006;5.798;2022-12-05T15:11:33;4.20;98.50
35127;DHT22;21300;52.006;5.798;2022-12-05T15:14:16;4.20;98.50
35127;DHT22;21300;52.006;5.798;2022-12-05T15:16:45;4.10;98.50
35127;DHT22;21300;52.006;5.798;2022-12-05T15:19:18;4.10;98.40
35127;DHT22;21300;52.006;5.798;2022-12-05T15:21:50;4.20;98.50
35127;DHT22;21300;52.006;5.798;2022-12-05T15:24:18;4.10;98.40
35127;DHT22;21300;52.006;5.798;2022-12-05T15:26:51;4.10;98.40
35127;DHT22;21300;52.006;5.798;2022-12-05T15:31:44;4.10;98.40
35127;DHT22;21300;52.006;5.798;2022-12-05T15:34:32;4.20;98.40
35127;DHT22;21300;52.006;5.798;2022-12-05T15:39:50;4.20;98.40
35127;DHT22;21300;52.006;5.798;2022-12-05T15:42:17;4.20;98.40
35127;DHT22;21300;52.006;5.798;2022-12-05T15:44:42;4.10;98.40
35127;DHT22;21300;52.006;5.798;2022-12-05T15:47:20;4.20;98.40
35127;DHT22;21300;52.006;5.798;2022-12-05T15:49:46;4.20;98.40
35127;DHT22;21300;52.006;5.798;2022-12-05T15:52:31;4.10;98.40
35127;DHT22;21300;52.006;5.798;2022-12-05T15:55:07;4.20;98.40
35127;DHT22;21300;52.006;5.798;2022-12-05T15:57:56;4.20;98.40
35127;DHT22;21300;52.006;5.798;2022-12-05T16:00:23;4.20;98.40
35127;DHT22;21300;52.006;5.798;2022-12-05T16:02:58;4.20;98.40
35127;DHT22;21300;52.006;5.798;2022-12-05T16:05:39;4.20;98.40
35127;DHT22;21300;52.006;5.798;2022-12-05T16:08:06;4.20;98.40
35127;DHT22;21300;52.006;5.798;2022-12-05T16:10:33;4.20;98.40
35127;DHT22;21300;52.006;5.798;2022-12-05T16:13:21;4.20;98.40
35127;DHT22;21300;52.006;5.798;2022-12-05T16:15:49;4.20;98.40
35127;DHT22;21300;52.006;5.798;2022-12-05T16:18:28;4.20;98.40
35127;DHT22;21300;52.006;5.798;2022-12-05T16:20:54;4.20;98.40
35127;DHT22;21300;52.006;5.798;2022-12-05T16:23:27;4.20;98.40
35127;DHT22;21300;52.006;5.798;2022-12-05T16:25:53;4.20;98.40
35127;DHT22;21300;52.006;5.798;2022-12-05T16:28:34;4.20;98.40
35127;DHT22;21300;52.006;5.798;2022-12-05T16:31:01;4.20;98.40
35127;DHT22;21300;52.006;5.798;2022-12-05T16:33:29;4.20;98.40
35127;DHT22;21300;52.006;5.798;2022-12-05T16:35:55;4.20;98.40
35127;DHT22;21300;52.006;5.798;2022-12-05T16:38:27;4.20;98.40
35127;DHT22;21300;52.006;5.798;2022-12-05T16:48:36;4.20;98.40
35127;DHT22;21300;52.006;5.798;2022-12-05T16:51:19;4.20;98.40
35127;DHT22;21300;52.006;5.798;2022-12-05T16:53:51;4.20;98.40
35127;DHT22;21300;52.006;5.798;2022-12-05T16:58:48;4.20;98.50
35127;DHT22;21300;52.006;5.798;2022-12-05T17:01:19;4.20;98.40
35127;DHT22;21300;52.006;5.798;2022-12-05T17:03:45;4.20;98.40
35127;DHT22;21300;52.006;5.798;2022-12-05T17:06:11;4.20;98.40
35127;DHT22;21300;52.006;5.798;2022-12-05T17:08:36;4.20;98.40
35127;DHT22;21300;52.006;5.798;2022-12-05T17:11:02;4.20;98.40
35127;DHT22;21300;52.006;5.798;2022-12-05T17:13:30;4.20;98.40
35127;DHT22;21300;52.006;5.798;2022-12-05T17:15:56;4.20;98.40
35127;DHT22;21300;52.006;5.798;2022-12-05T17:18:22;4.20;98.40
35127;DHT22;21300;52.006;5.798;2022-12-05T17:20:52;4.20;98.40
35127;DHT22;21300;52.006;5.798;2022-12-05T17:23:19;4.20;98.50
35127;DHT22;21300;52.006;5.798;2022-12-05T17:25:53;4.20;98.40
35127;DHT22;21300;52.006;5.798;2022-12-05T17:28:19;4.20;98.40
35127;DHT22;21300;52.006;5.798;2022-12-05T17:30:45;4.20;98.50
35127;DHT22;21300;52.006;5.798;2022-12-05T17:33:13;4.20;98.40
35127;DHT22;21300;52.006;5.798;2022-12-05T17:35:39;4.20;98.40
35127;DHT22;21300;52.006;5.798;2022-12-05T17:40:49;4.20;98.40
35127;DHT22;21300;52.006;5.798;2022-12-05T17:43:15;4.20;98.40
35127;DHT22;21300;52.006;5.798;2022-12-05T17:45:41;4.20;98.40
35127;DHT22;21300;52.006;5.798;2022-12-05T17:48:14;4.20;98.50
35127;DHT22;21300;52.006;5.798;2022-12-05T17:50:41;4.30;98.50
35127;DHT22;21300;52.006;5.798;2022-12-05T17:55:56;4.20;98.40
35127;DHT22;21300;52.006;5.798;2022-12-05T17:58:21;4.20;98.40
35127;DHT22;21300;52.006;5.798;2022-12-05T18:00:47;4.20;98.40
35127;DHT22;21300;52.006;5.798;2022-12-05T18:03:16;4.20;98.40
35127;DHT22;21300;52.006;5.798;2022-12-05T18:05:42;4.20;98.40
35127;DHT22;21300;52.006;5.798;2022-12-05T18:08:08;4.20;98.40
35127;DHT22;21300;52.006;5.798;2022-12-05T18:10:34;4.20;98.40
35127;DHT22;21300;52.006;5.798;2022-12-05T18:12:59;4.20;98.40
35127;DHT22;21300;52.006;5.798;2022-12-05T18:15:25;4.20;98.50
35127;DHT22;21300;52.006;5.798;2022-12-05T18:17:50;4.20;98.40
35127;DHT22;21300;52.006;5.798;2022-12-05T18:20:16;4.20;98.40
35127;DHT22;21300;52.006;5.798;2022-12-05T18:22:42;4.20;98.40
35127;DHT22;21300;52.006;5.798;2022-12-05T18:25:09;4.20;98.40
35127;DHT22;21300;52.006;5.798;2022-12-05T18:30:20;4.20;98.40
35127;DHT22;21300;52.006;5.798;2022-12-05T18:32:45;4.20;98.40
35127;DHT22;21300;52.006;5.798;2022-12-05T18:35:11;4.20;98.40
35127;DHT22;21300;52.006;5.798;2022-12-05T18:37:37;4.20;98.40
35127;DHT22;21300;52.006;5.798;2022-12-05T18:40:04;4.20;98.60
35127;DHT22;21300;52.006;5.798;2022-12-05T18:42:30;4.20;98.40
35127;DHT22;21300;52.006;5.798;2022-12-05T18:44:56;4.20;98.40